Sunderland, Vermont
Current Conditions -  °F | °C
As of 6:54 AM on Tuesday 21 Oct 2014 (Local Time) from KDDH Reporting Station
Light Rain Light Rain  
Wind Chill: 50°   Ceiling: 5500
Heat Index: 50°   Visibility: 10mi
Dew Point: 41°   Wind: 5mph
Humidity: 71%   Direction: 360°N
Pressure: 29.91"   Gusts: NA
Location:  43.0661°N, 73.1407°W
Report Text: KDDH 211054Z AUTO 36004KT 10SM -RA OVC055 10/05 A2991 RMK AO2 RAB52 SLP129 P0000 T01000050
Loading
Personal Weather Stations






























Interactive Weather Map New forecast layout! Learn more

10-Day Weather Forecast

Advertisements
Track Severe Weather on mobile